Katy, TX (77449)

5:58 PM CDT on March 24, 2017 (GMT -0500)
Lakes of Bridgewater | | Change Station
Active Advisory: Wind Advisory

Elev 141 ft 29.82 °N, 95.74 °W | Updated 18 seconds ago

Overcast
Overcast
76.3 °F
Feels Like 78 °F
N
14.0
Wind Variable Wind from SSW

Today
High -- | Low -- °F
--% Chance of Precip.
Yesterday
High -- | Low -- °F
Precip. -- in
Pressure 29.92 in
Visibility 7.0 miles
Clouds Few 3100 ft
Mostly Cloudy 4900 ft
Mostly Cloudy 6000 ft
Heat Index 78 °F
Dew Point 63 °F
Humidity 65%
Rainfall 0.00 in
Snow Depth Not available.
7:21 AM 7:36 PM
Waning Crescent, 12% visible
METAR KTME 242235Z AUTO 18017G31KT 7SM FEW031 BKN049 BKN060 25/19 A2992 RMK AO2
Pressure 29.92 in
Visibility 7.0 miles
Clouds Few 3100 ft
Mostly Cloudy 4900 ft
Mostly Cloudy 6000 ft
Heat Index 78 °F
Dew Point 63 °F
Humidity 65%
Rainfall 0.00 in
Snow Depth Not available.
7:21 AM 7:36 PM
Waning Crescent, 12% visible
METAR KTME 242235Z AUTO 18017G31KT 7SM FEW031 BKN049 BKN060 25/19 A2992 RMK AO2

Get Your Daily Forecast Email!

Thanks for signing up!

Be on the lookout for a verification email in your inbox.

You'll start receiving severe weather alerts in your inbox..

×

10-Day Weather Forecast

Almanac

Astronomy

Mar. 24, 2017 Rise Set
Actual Time
Civil Twilight
Nautical Twilight
Astronomical Twilight
Moon
Length of Visible Light
Length of Day
Tomorrow will be .
, % of the Moon is Illuminated

Today's Extremes

State Highs State Lows

Community

WunderPhotos

Upload Photos

1,962,540 photos uploaded!

WunderBlog® & News

Nearby

Air Quality

  Air Quality AQ Index Pollutant
Not available.

Snow Depth

Station Depth Elevation

Earthquake Activity

City Distance Mag. Time & Date
Minimum magnitude displayed is 2.5.

Earthquake Activity

City Distance Mag. Time & Date
Minimum magnitude displayed is 2.5.

Coastal Water Temperatures

Place Temperature

Stations

Nearby Weather Stations

Station Location Temp. Windchill Dew Point Humidity Wind Precip. Elev Updated Type
                   

Watches & Warnings

Wind Advisory
Issued: 3:15 PM CDT Mar. 24, 2017 – National Weather Service

... Wind Advisory in effect until 8 PM CDT this evening...

The National Weather Service in Houston/Galveston has issued a
Wind Advisory, which is in effect until 8 PM CDT this evening.

* Event... strong south winds between 20 and 30 mph. Gusts over 30
mph.

* Timing... through this evening.

* Impact... unsecured light weight items could be tossed about by
strong winds. Drivers on east west oriented roads should
prepare for strong cross winds and drivers of high profile
vehicles should be particularly cautious.

Precautionary/preparedness actions...

Drivers of vans... campers... trailers... and other high-profile
vehicles should be alert to the danger of these winds...
especially when driving along east to west oriented roads